TimeEDT,TemperatureF,Dew PointF,Humidity,Sea Level PressureIn,VisibilityMPH,Wind Direction,Wind SpeedMPH,Gust SpeedMPH,PrecipitationIn,Events,Conditions,WindDirDegrees,DateUTC
12:54 AM,68.0,66.0,93,29.88,-9999.0,North,-9999.0,-,N/A,,Unknown,0,2013-09-12 04:54:00
1:54 AM,66.9,64.9,93,29.86,-9999.0,North,-9999.0,-,N/A,,Unknown,0,2013-09-12 05:54:00
2:54 AM,66.9,64.9,93,29.85,-9999.0,North,-9999.0,-,N/A,,Unknown,0,2013-09-12 06:54:00
3:54 AM,66.0,64.9,96,29.87,-9999.0,North,-9999.0,-,N/A,,Unknown,0,2013-09-12 07:54:00
4:54 AM,66.0,64.9,96,29.87,-9999.0,North,-9999.0,-,0.01,,Unknown,0,2013-09-12 08:54:00
5:54 AM,66.9,64.9,93,29.87,-9999.0,North,-9999.0,-,N/A,,Unknown,0,2013-09-12 09:54:00
6:54 AM,66.0,64.9,96,29.85,-9999.0,North,-9999.0,-,0.01,,Unknown,0,2013-09-12 10:54:00
7:54 AM,66.9,66.0,97,29.83,-9999.0,North,-9999.0,-,N/A,,Unknown,0,2013-09-12 11:54:00
8:54 AM,68.0,66.0,93,29.81,-9999.0,North,-9999.0,-,N/A,,Unknown,0,2013-09-12 12:54:00
9:54 AM,70.0,66.0,87,29.79,-9999.0,North,-9999.0,-,N/A,,Unknown,0,2013-09-12 13:54:00
10:54 AM,72.0,66.0,81,29.77,-9999.0,North,-9999.0,-,N/A,,Unknown,0,2013-09-12 14:54:00
11:54 AM,73.0,66.0,79,29.75,-9999.0,North,-9999.0,-,N/A,,Unknown,0,2013-09-12 15:54:00
12:54 PM,75.0,69.1,82,29.73,-9999.0,North,-9999.0,-,0.01,,Unknown,0,2013-09-12 16:54:00
1:54 PM,77.0,69.1,76,29.70,-9999.0,North,-9999.0,-,N/A,,Unknown,0,2013-09-12 17:54:00
2:54 PM,78.1,70.0,76,29.67,-9999.0,North,-9999.0,-,N/A,,Unknown,0,2013-09-12 18:54:00
3:54 PM,77.0,70.0,79,29.65,-9999.0,North,-9999.0,-,N/A,,Unknown,0,2013-09-12 19:54:00
4:54 PM,66.9,64.9,93,29.66,-9999.0,North,-9999.0,-,0.24,,Unknown,0,2013-09-12 20:54:00
5:54 PM,66.9,66.0,97,29.65,-9999.0,North,-9999.0,-,0.25,,Unknown,0,2013-09-12 21:54:00
6:54 PM,66.9,66.0,97,29.66,-9999.0,North,-9999.0,-,0.03,,Unknown,0,2013-09-12 22:54:00
7:54 PM,66.0,64.9,96,29.65,-9999.0,North,-9999.0,-,N/A,,Unknown,0,2013-09-12 23:54:00
8:54 PM,64.9,64.0,97,29.66,-9999.0,North,-9999.0,-,N/A,,Unknown,0,2013-09-13 00:54:00
9:54 PM,64.9,64.0,97,29.63,-9999.0,North,-9999.0,-,N/A,,Unknown,0,2013-09-13 01:54:00
10:54 PM,64.9,64.0,97,29.63,-9999.0,North,-9999.0,-,0.04,,Unknown,0,2013-09-13 02:54:00
11:54 PM,64.9,64.0,97,29.61,-9999.0,North,-9999.0,-,0.07,,Unknown,0,2013-09-13 03:54:00